AAL2109 KDFW-KCVG
Flight info
| Callsign | AAL2109 |
|---|---|
| Flight time | N/A |
| Altitude | 37000 |
| Route | ZACHH4 BSKAT LIT J131 HUMBO TERGE SARGO5 |
| Aircraft | B38M/M-SDE1FGHILORVWXY/HB1 |
Departure
| Time | 2026-05-06 21:11 |
|---|---|
| Airport | Dallas Fort Worth International Airport (KDFW) |
Arrival
| Time | N/A |
|---|---|
| Airport | Cincinnati Northern Kentucky International Airport (KCVG) |
| Time | Latitude | Longitude | Altitude | Speed | Heading |
|---|---|---|---|---|---|
| 2026-05-06 20:25 | 32.90008 | -97.04420 | 599 ft | 0 kts | 181° |
| 2026-05-06 20:39 | 32.90012 | -97.04420 | 599 ft | 2 kts | 181° |
| 2026-05-06 20:39 | 32.90028 | -97.04420 | 599 ft | 2 kts | 181° |
| 2026-05-06 20:39 | 32.90044 | -97.04420 | 599 ft | 2 kts | 181° |
| 2026-05-06 20:39 | 32.90060 | -97.04419 | 599 ft | 2 kts | 181° |
| 2026-05-06 20:40 | 32.90071 | -97.04419 | 599 ft | 0 kts | 181° |
| 2026-05-06 20:51 | 32.90008 | -97.04420 | 599 ft | 174 kts | 181° |
| 2026-05-06 20:52 | 32.90024 | -97.04420 | 599 ft | 2 kts | 181° |
| 2026-05-06 20:52 | 32.90041 | -97.04420 | 599 ft | 2 kts | 181° |
| 2026-05-06 20:53 | 32.90057 | -97.04419 | 599 ft | 2 kts | 181° |
| 2026-05-06 20:53 | 32.90073 | -97.04419 | 599 ft | 2 kts | 181° |
| 2026-05-06 20:53 | 32.90075 | -97.04419 | 599 ft | 0 kts | 181° |
| 2026-05-06 21:04 | 32.90070 | -97.04426 | 599 ft | 4 kts | 224° |
| 2026-05-06 21:04 | 32.90069 | -97.04501 | 599 ft | 15 kts | 282° |
| 2026-05-06 21:04 | 32.90081 | -97.04645 | 599 ft | 14 kts | 269° |
| 2026-05-06 21:05 | 32.90045 | -97.04760 | 599 ft | 18 kts | 221° |
| 2026-05-06 21:05 | 32.89960 | -97.04773 | 599 ft | 15 kts | 175° |
| 2026-05-06 21:05 | 32.89822 | -97.04769 | 599 ft | 24 kts | 180° |
| 2026-05-06 21:05 | 32.89622 | -97.04769 | 599 ft | 33 kts | 181° |
| 2026-05-06 21:06 | 32.89366 | -97.04770 | 599 ft | 41 kts | 179° |
| 2026-05-06 21:06 | 32.89072 | -97.04770 | 599 ft | 43 kts | 181° |
| 2026-05-06 21:06 | 32.88771 | -97.04772 | 599 ft | 42 kts | 181° |
| 2026-05-06 21:06 | 32.88591 | -97.04775 | 599 ft | 19 kts | 176° |
| 2026-05-06 21:07 | 32.88502 | -97.04702 | 599 ft | 12 kts | 84° |
| 2026-05-06 21:07 | 32.88506 | -97.04581 | 599 ft | 19 kts | 88° |
| 2026-05-06 21:07 | 32.88502 | -97.04393 | 599 ft | 27 kts | 93° |
| 2026-05-06 21:07 | 32.88500 | -97.04145 | 599 ft | 34 kts | 89° |
| 2026-05-06 21:08 | 32.88501 | -97.03852 | 599 ft | 37 kts | 91° |
| 2026-05-06 21:08 | 32.88500 | -97.03592 | 599 ft | 25 kts | 91° |
| 2026-05-06 21:08 | 32.88499 | -97.03405 | 599 ft | 21 kts | 91° |
| 2026-05-06 21:08 | 32.88497 | -97.03334 | 599 ft | 0 kts | 104° |
| 2026-05-06 21:09 | 32.88484 | -97.03309 | 599 ft | 7 kts | 133° |
| 2026-05-06 21:09 | 32.88422 | -97.03289 | 599 ft | 13 kts | 177° |
| 2026-05-06 21:09 | 32.88308 | -97.03289 | 599 ft | 19 kts | 180° |
| 2026-05-06 21:09 | 32.88151 | -97.03290 | 599 ft | 26 kts | 180° |
| 2026-05-06 21:10 | 32.87992 | -97.03267 | 599 ft | 15 kts | 137° |
| 2026-05-06 21:10 | 32.87979 | -97.03162 | 599 ft | 16 kts | 86° |
| 2026-05-06 21:10 | 32.87991 | -97.03030 | 599 ft | 9 kts | 63° |
| 2026-05-06 21:10 | 32.88143 | -97.03008 | 599 ft | 60 kts | 1° |
| 2026-05-06 21:11 | 32.88850 | -97.02999 | 600 ft | 140 kts | 359° |
| 2026-05-06 21:11 | 32.90009 | -97.03097 | 733 ft | 185 kts | 352° |
| 2026-05-06 21:11 | 32.91321 | -97.03178 | 1527 ft | 184 kts | 1° |
| 2026-05-06 21:11 | 32.92487 | -97.03047 | 2933 ft | 155 kts | 358° |
| 2026-05-06 21:12 | 32.93646 | -97.03130 | 3190 ft | 182 kts | 356° |
| 2026-05-06 21:12 | 32.94862 | -97.03207 | 3667 ft | 189 kts | 358° |
| 2026-05-06 21:12 | 32.96149 | -97.03049 | 4483 ft | 174 kts | 8° |
| 2026-05-06 21:12 | 32.97343 | -97.02617 | 4861 ft | 198 kts | 15° |
| 2026-05-06 21:13 | 32.98796 | -97.01975 | 4656 ft | 240 kts | 18° |
| 2026-05-06 21:13 | 33.00377 | -97.01518 | 5359 ft | 227 kts | 360° |
| 2026-05-06 21:13 | 33.02036 | -97.01570 | 5401 ft | 270 kts | 354° |
| 2026-05-06 21:13 | 33.04160 | -97.01709 | 4984 ft | 336 kts | 355° |
| 2026-05-06 21:14 | 33.06630 | -97.01894 | 5625 ft | 348 kts | 353° |
| 2026-05-06 21:14 | 33.09138 | -97.02080 | 6201 ft | 385 kts | 353° |
| 2026-05-06 21:14 | 33.11761 | -97.02313 | 7444 ft | 381 kts | 352° |
| 2026-05-06 21:14 | 33.14445 | -97.02560 | 8687 ft | 381 kts | 352° |
| 2026-05-06 21:15 | 33.17048 | -97.02800 | 9817 ft | 380 kts | 352° |
| 2026-05-06 21:15 | 33.19703 | -97.03046 | 10855 ft | 383 kts | 351° |
| 2026-05-06 21:15 | 33.22365 | -97.03294 | 11899 ft | 385 kts | 350° |
| 2026-05-06 21:15 | 33.25030 | -97.03544 | 12963 ft | 386 kts | 349° |
| 2026-05-06 21:16 | 33.27707 | -97.03796 | 14003 ft | 387 kts | 348° |
| 2026-05-06 21:16 | 33.30399 | -97.04050 | 14949 ft | 388 kts | 348° |
| 2026-05-06 21:16 | 33.33089 | -97.04305 | 15890 ft | 388 kts | 347° |
| 2026-05-06 21:16 | 33.35847 | -97.04204 | 16623 ft | 416 kts | 5° |
| 2026-05-06 21:17 | 33.38552 | -97.02821 | 17304 ft | 443 kts | 28° |
| 2026-05-06 21:17 | 33.40869 | -97.00337 | 18299 ft | 452 kts | 48° |
| 2026-05-06 21:17 | 33.42565 | -96.97219 | 19511 ft | 442 kts | 63° |
| 2026-05-06 21:17 | 33.43887 | -96.93979 | 20790 ft | 433 kts | 64° |
| 2026-05-06 21:18 | 33.45114 | -96.90578 | 21039 ft | 453 kts | 68° |
| 2026-05-06 21:18 | 33.46306 | -96.87077 | 21893 ft | 453 kts | 71° |
| 2026-05-06 21:18 | 33.47275 | -96.83490 | 22712 ft | 453 kts | 75° |
| 2026-05-06 21:18 | 33.48119 | -96.79855 | 23526 ft | 452 kts | 77° |
| 2026-05-06 21:19 | 33.48915 | -96.76206 | 24201 ft | 453 kts | 77° |
| 2026-05-06 21:19 | 33.49699 | -96.72553 | 24844 ft | 453 kts | 78° |
| 2026-05-06 21:19 | 33.50486 | -96.68891 | 25512 ft | 452 kts | 78° |
| 2026-05-06 21:19 | 33.51258 | -96.65424 | 27129 ft | 420 kts | 78° |
| 2026-05-06 21:20 | 33.52044 | -96.62024 | 27654 ft | 426 kts | 78° |
| 2026-05-06 21:20 | 33.52847 | -96.58635 | 28076 ft | 431 kts | 78° |
| 2026-05-06 21:20 | 33.53679 | -96.55165 | 28504 ft | 435 kts | 78° |
| 2026-05-06 21:20 | 33.54526 | -96.51663 | 28951 ft | 440 kts | 77° |
| 2026-05-06 21:21 | 33.55387 | -96.48127 | 29399 ft | 443 kts | 77° |
| 2026-05-06 21:21 | 33.56268 | -96.44530 | 29822 ft | 448 kts | 77° |
| 2026-05-06 21:21 | 33.57146 | -96.40918 | 30230 ft | 451 kts | 77° |
| 2026-05-06 21:21 | 33.58013 | -96.37343 | 30595 ft | 454 kts | 77° |
| 2026-05-06 21:22 | 33.58900 | -96.33690 | 30953 ft | 458 kts | 77° |
| 2026-05-06 21:22 | 33.59792 | -96.30016 | 31316 ft | 461 kts | 77° |
| 2026-05-06 21:22 | 33.60677 | -96.26394 | 32191 ft | 447 kts | 77° |
| 2026-05-06 21:22 | 33.61580 | -96.22756 | 32184 ft | 464 kts | 77° |
| 2026-05-06 21:23 | 33.62533 | -96.19027 | 32511 ft | 470 kts | 76° |
| 2026-05-06 21:23 | 33.63341 | -96.15953 | 32720 ft | 476 kts | 77° |